Latest Weather Observations for Coonabarabran Airport

IDN60801

Issued at 9:23 am EST Wednesday 22 September 2021 (issued every 10 minutes, with the page automatically refreshed every 10 minutes)

About weather observations | Map of weather stations | Latest weather observations for NSW | Other Formats
Station Details ID: 064017 Name: COONABARABRAN AIRPORT AWS Lat: -31.33 Lon: 149.27 Height: 645.0 m
Data from the previous 72 hours. | See also: Recent months at Coonabarabran Airport
Date/Time
EST
Temp
°C
App
Temp
°C
Dew
Point
°C
Rel
Hum
%
Delta-T
°C
Wind Press
QNH
hPa
Press
MSL
hPa
Rain since
9am
mm
Dir  Spd
km/h
Gust
km/h
Spd
kts
Gust
kts
22/09:00am 9.7 5.4 3.2 64 2.9 S 15 17 8 9 1025.1 1023.9 0.0
22/08:30am 7.9 3.0 2.2 67 2.5 S 17 24 9 13 1024.9 1023.7 0.0
22/08:00am 6.7 2.6 2.4 74 1.8 SSW 13 17 7 9 1024.8 1023.6 0.0
22/07:30am 5.8 1.7 2.3 78 1.5 SSW 13 17 7 9 1024.5 1023.3 0.0
22/07:00am 5.2 1.5 2.2 81 1.3 SSW 11 17 6 9 1024.3 1023.1 0.0
22/06:30am 3.7 0.3 1.6 86 0.9 SSW 9 13 5 7 1023.8 1022.7 0.0
22/06:00am 3.0 -1.3 0.9 86 0.8 SSW 13 15 7 8 1023.5 1022.3 0.0
22/05:30am 3.2 -1.1 0.9 85 0.9 SSW 13 17 7 9 1023.3 1022.1 0.0
22/05:00am 3.6 -0.7 1.3 85 0.9 SSW 13 17 7 9 1023.0 1021.8 0.0
22/04:30am 3.3 -1.0 1.0 85 0.9 SW 13 17 7 9 1022.8 1021.6 0.0
22/04:00am 2.9 -1.4 1.0 87 0.8 SW 13 17 7 9 1022.8 1021.6 0.0
22/03:30am 3.1 -1.2 1.0 86 0.8 SSW 13 17 7 9 1022.7 1021.5 0.0
22/03:00am 3.3 -1.8 1.0 85 0.9 S 17 20 9 11 1022.8 1021.6 0.0
22/02:30am 3.4 -1.6 1.1 85 0.9 S 17 20 9 11 1023.0 1021.8 0.0
22/02:00am 3.8 -1.8 1.2 83 1.0 S 20 26 11 14 1023.3 1022.1 0.0
22/01:30am 4.1 -1.5 1.1 81 1.2 S 20 24 11 13 1023.7 1022.5 0.0
22/01:00am 4.6 -1.4 1.1 78 1.4 S 22 33 12 18 1024.2 1023.0 0.0
22/12:30am 4.7 -1.0 0.8 76 1.6 SSW 20 30 11 16 1024.3 1023.1 0.0
22/12:00am 5.1 -1.3 0.9 74 1.7 SSW 24 32 13 17 1024.5 1023.3 0.0
 
Date/Time
EST
Temp
°C
App
Temp
°C
Dew
Point
°C
Rel
Hum
%
Delta-T
°C
Wind Press
QNH
hPa
Press
MSL
hPa
Rain since
9am
mm
Dir  Spd
km/h
Gust
km/h
Spd
kts
Gust
kts
21/11:30pm 5.4 -1.0 1.0 73 1.8 S 24 30 13 16 1024.7 1023.5 0.0
21/11:00pm 5.5 -0.1 1.1 73 1.8 SSW 20 30 11 16 1024.8 1023.6 0.0
21/10:30pm 5.3 -0.2 0.9 73 1.8 SSW 19 26 10 14 1024.7 1023.5 0.0
21/10:00pm 5.3 0.2 0.9 73 1.8 SSW 17 22 9 12 1024.5 1023.3 0.0
21/09:30pm 5.5 0.4 0.7 71 2.0 SSW 17 24 9 13 1024.2 1023.0 0.0
21/09:00pm 5.6 0.1 0.6 70 2.0 SSW 19 26 10 14 1024.0 1022.9 0.0
21/08:30pm 5.6 0.1 0.4 69 2.1 SSW 19 28 10 15 1024.0 1022.9 0.0
21/08:00pm 5.9 0.4 0.3 67 2.3 SSW 19 30 10 16 1023.5 1022.3 0.0
21/07:30pm 6.1 0.3 0.0 65 2.5 SSW 20 28 11 15 1023.2 1022.0 0.0
21/07:00pm 6.3 0.1 -0.2 63 2.6 SSW 22 35 12 19 1022.9 1021.7 0.0
21/06:30pm 6.3 -0.3 -0.4 62 2.7 SW 24 35 13 19 1022.3 1021.1 0.0
21/06:00pm 6.7 -0.4 -1.0 58 3.0 SSW 26 43 14 23 1021.7 1020.5 0.0
21/05:30pm 7.3 0.3 -0.6 57 3.2 SSW 26 39 14 21 1021.5 1020.3 0.0
21/05:00pm 7.7 -0.5 -0.8 55 3.4 SSW 32 48 17 26 1021.4 1020.2 0.0
21/04:30pm 8.2 -0.2 -0.8 53 3.6 SSW 33 56 18 30 1020.9 1019.6 0.0
21/04:00pm 8.3 -0.5 -1.5 50 3.9 SW 35 61 19 33 1020.3 1019.1 0.0
21/03:43pm 8.4 0.2 -1.1 51 3.8 SSW 32 54 17 29 1020.1 1018.9 0.0
21/03:30pm 8.5 0.3 -1.0 51 3.8 SW 32 43 17 23 1020.1 1018.9 0.0
21/03:00pm 8.0 -0.5 -2.0 49 3.9 SW 33 46 18 25 1019.9 1018.7 0.0
21/02:45pm 9.7 2.0 0.1 51 4.0 SSW 30 48 16 26 1019.6 1018.3 0.0
21/02:30pm 7.9 -0.5 -0.8 54 3.5 SSW 33 46 18 25 1019.6 1018.3 0.0
21/02:15pm 7.9 -0.4 -1.9 50 3.8 SSW 32 50 17 27 1019.5 1018.2 0.0
21/02:00pm 9.1 1.7 -0.5 51 3.9 SSW 28 39 15 21 1019.4 1018.1 0.0
21/01:30pm 8.3 0.5 -1.0 52 3.7 SSW 30 52 16 28 1019.5 1018.2 0.0
21/01:03pm 7.8 -0.1 -1.2 53 3.6 SSW 30 48 16 26 1019.8 1018.6 0.0
21/01:00pm 7.6 -0.4 0.3 60 3.0 SSW 32 44 17 24 1019.8 1018.6 0.0
21/12:39pm 7.5 -0.3 -0.5 57 3.2 SW 30 48 16 26 1019.8 1018.6 0.0
21/12:30pm 7.3 -1.0 -0.2 59 3.0 SW 33 44 18 24 1019.8 1018.6 0.0
21/12:00pm 6.5 -1.7 0.2 64 2.5 SW 33 52 18 28 1019.8 1018.6 0.0
21/11:36am 6.2 -1.1 -0.1 64 2.5 SW 28 46 15 25 1019.8 1018.6 0.0
21/11:30am 6.0 -1.3 0.1 66 2.4 SW 28 43 15 23 1019.8 1018.6 0.0
21/11:00am 5.2 -2.5 0.0 69 2.1 SSW 30 50 16 27 1019.8 1018.6 0.0
21/10:55am 5.3 -2.3 0.3 70 2.0 SW 30 50 16 27 1019.8 1018.6 0.0
21/10:42am 4.9 -1.0 1.6 79 1.4 SSW 22 35 12 19 1019.7 1018.4 0.0
21/10:30am 4.4 -2.6 1.9 84 1.0 SW 28 41 15 22 1020.0 1018.8 0.0
21/10:00am 5.3 -3.5 -1.2 63 2.5 SSW 35 54 19 29 1019.8 1018.6 0.0
21/09:30am 4.3 -4.1 -1.3 67 2.1 SSW 33 52 18 28 1019.8 1018.6 0.0
21/09:00am 3.8 -4.9 -0.6 73 1.7 SW 35 54 19 29 1019.6 1018.3 0.0
21/08:31am 4.0 -3.4 -1.0 70 1.9 SW 28 46 15 25 1019.2 1017.9 0.0
21/08:30am 4.1 -2.9 -0.7 71 1.9 SW 26 44 14 24 1019.0 1017.8 0.0
21/08:28am 4.3 -2.6 -0.1 73 1.7 SW 26 39 14 21 1019.0 1017.8 0.0
21/08:12am 4.0 -3.7 -0.2 74 1.6 SSW 30 50 16 27 1018.6 1017.4 0.0
21/08:00am 3.7 -4.5 0.1 77 1.4 SSW 33 46 18 25 1018.4 1017.2 0.0
21/07:33am 3.7 -3.9 0.4 79 1.3 SW 30 48 16 26 1018.1 1016.8 0.0
21/07:31am 3.8 -3.8 0.5 79 1.3 SW 30 48 16 26 1018.1 1016.8 0.0
21/07:30am 3.7 -4.3 0.4 79 1.3 SW 32 48 17 26 1018.1 1016.8 0.0
21/07:26am 3.9 -3.3 0.6 79 1.3 SW 28 46 15 25 1018.1 1016.8 0.0
21/07:00am 3.5 -4.5 0.6 81 1.1 SW 32 46 17 25 1017.7 1016.4 0.0
21/06:30am 3.3 -3.9 0.7 83 1.0 SW 28 39 15 21 1017.2 1016.0 0.0
21/06:19am 3.3 -2.7 1.0 85 0.9 SW 22 35 12 19 1017.1 1015.9 0.0
21/06:00am 3.8 -3.0 1.0 82 1.1 SW 26 35 14 19 1016.7 1015.4 0.0
21/05:36am 4.4 -2.6 2.1 85 1.0 SW 28 39 15 21 1016.4 1015.1 0.0
21/05:30am 4.5 -2.8 2.4 86 0.9 SW 30 39 16 21 1016.3 1015.0 0.0
21/05:00am 4.5 -2.8 2.4 86 0.9 SW 30 41 16 22 1015.7 1014.5 0.0
21/04:30am 4.8 -1.7 2.7 86 0.9 SW 26 37 14 20 1015.4 1014.1 0.0
21/04:23am 4.9 -2.0 2.8 86 0.9 SW 28 41 15 22 1015.5 1014.2 0.0
21/04:00am 5.2 -0.8 3.1 86 0.9 SW 24 33 13 18 1015.4 1014.1 0.0
21/03:59am 5.2 -0.8 3.1 86 0.9 SW 24 33 13 18 1015.4 1014.1 0.0
21/03:30am 5.1 -1.0 2.6 84 1.1 SW 24 33 13 18 1015.2 1013.9 0.0
21/03:00am 5.7 -1.2 2.5 80 1.4 SW 28 39 15 21 1015.0 1013.7 0.0
21/02:30am 6.3 -0.5 3.1 80 1.4 SW 28 39 15 21 1015.1 1013.8 0.0
21/02:00am 6.8 0.7 2.9 76 1.7 SSW 24 39 13 21 1015.2 1013.9 0.0
21/01:30am 7.2 1.5 3.1 75 1.8 SSW 22 39 12 21 1015.4 1014.1 0.0
21/01:00am 7.4 2.2 2.5 71 2.1 S 19 28 10 15 1015.7 1014.5 0.0
21/12:30am 7.5 2.1 2.4 70 2.2 S 20 28 11 15 1016.2 1014.9 0.0
21/12:00am 7.9 3.1 2.6 69 2.3 S 17 24 9 13 1016.1 1014.8 0.0
 
Date/Time
EST
Temp
°C
App
Temp
°C
Dew
Point
°C
Rel
Hum
%
Delta-T
°C
Wind Press
QNH
hPa
Press
MSL
hPa
Rain since
9am
mm
Dir  Spd
km/h
Gust
km/h
Spd
kts
Gust
kts
20/11:30pm 8.2 3.1 2.9 69 2.3 S 19 26 10 14 1016.2 1014.9 0.0
20/11:00pm 8.6 2.5 3.0 68 2.5 S 24 41 13 22 1016.2 1014.9 0.0
20/10:30pm 8.9 2.1 3.1 67 2.6 S 28 35 15 19 1015.9 1014.6 0.0
20/10:00pm 9.4 3.4 3.2 65 2.8 SSW 24 39 13 21 1016.1 1014.8 0.0
20/09:30pm 9.9 2.6 4.3 68 2.6 S 32 44 17 24 1016.2 1014.9 0.0
20/09:00pm 11.0 3.6 6.6 74 2.2 S 35 48 19 26 1016.3 1015.0 0.0
20/08:33pm 11.7 4.8 7.2 74 2.2 SSW 33 52 18 28 1016.1 1014.8 0.0
20/08:30pm 11.7 4.4 7.2 74 2.2 SSW 35 52 19 28 1016.0 1014.7 0.0
20/08:17pm 12.0 5.2 6.7 70 2.6 SSW 32 50 17 27 1015.6 1014.3 0.0
20/08:00pm 13.5 7.6 3.8 52 4.6 SW 24 35 13 19 1015.1 1013.8 0.0
20/07:30pm 15.1 9.8 -3.7 27 7.6 NW 15 17 8 9 1013.7 1012.4 0.0
20/07:00pm 15.3 10.4 -3.6 27 7.7 NW 13 17 7 9 1013.7 1012.4 0.0
20/06:30pm 15.2 10.3 -3.6 27 7.6 NW 13 17 7 9 1013.9 1012.6 0.0
20/06:00pm 16.5 11.3 -3.0 26 8.1 WNW 15 20 8 11 1013.8 1012.5 0.0
20/05:30pm 18.1 12.0 -2.2 25 8.7 WNW 20 26 11 14 1013.8 1012.5 0.0
20/05:00pm 19.5 13.4 -2.2 23 9.5 WNW 20 30 11 16 1013.9 1012.6 0.0
20/04:30pm 20.4 14.3 -2.0 22 9.9 WNW 20 28 11 15 1013.9 1012.6 0.0
20/04:00pm 20.3 12.3 -2.1 22 9.9 W 30 41 16 22 1014.2 1012.8 0.0
20/03:30pm 20.8 14.2 -0.5 24 9.7 WNW 24 33 13 18 1014.5 1013.2 0.0
20/03:00pm 20.8 13.7 -1.1 23 9.9 W 26 41 14 22 1014.7 1013.4 0.0
20/02:30pm 20.3 12.6 -0.3 25 9.4 W 30 43 16 23 1015.3 1014.0 0.0
20/02:11pm 20.3 13.2 1.2 28 9.0 W 28 46 15 25 1015.4 1014.1 0.0
20/02:00pm 20.4 12.3 -0.3 25 9.4 W 32 44 17 24 1015.4 1014.1 0.0
20/01:30pm 20.6 12.4 -0.7 24 9.7 W 32 46 17 25 1016.2 1014.9 0.0
20/01:00pm 20.0 12.5 -1.2 24 9.5 WNW 28 39 15 21 1016.8 1015.5 0.0
20/12:30pm 20.0 12.5 -1.2 24 9.5 W 28 37 15 20 1017.3 1016.1 0.0
20/12:00pm 19.5 12.2 0.0 27 8.9 W 28 39 15 21 1017.9 1016.6 0.0
20/11:30am 19.3 12.1 0.4 28 8.7 W 28 39 15 21 1018.5 1017.3 0.0
20/11:00am 19.2 13.2 -1.3 25 9.1 WNW 20 39 11 21 1018.9 1017.7 0.0
20/10:30am 18.1 13.0 3.9 39 6.9 NW 20 30 11 16 1019.4 1018.1 0.0
20/10:00am 17.6 11.9 4.9 43 6.3 NW 24 30 13 16 1019.6 1018.3 0.0
20/09:30am 17.3 11.6 4.9 44 6.1 NW 24 30 13 16 1019.7 1018.4 0.0
20/09:00am 16.2 11.4 5.5 49 5.3 NNW 20 30 11 16 1019.8 1018.6 0.0
20/08:30am 15.6 11.7 6.9 56 4.4 NNW 17 22 9 12 1019.9 1018.7 0.0
20/08:00am 13.8 10.4 5.9 59 3.9 NNW 13 17 7 9 1019.9 1018.7 0.0
20/07:30am 12.1 9.0 5.5 64 3.2 N 11 15 6 8 1019.7 1018.4 0.0
20/07:00am 11.3 8.0 4.5 63 3.2 NNW 11 15 6 8 1019.4 1018.1 0.0
20/06:30am 10.8 7.7 3.8 62 3.2 NNW 9 13 5 7 1019.3 1018.0 0.0
20/06:00am 10.6 7.1 3.4 61 3.3 NNW 11 13 6 7 1019.4 1018.1 0.0
20/05:30am 11.2 7.7 3.7 60 3.4 NNW 11 13 6 7 1019.3 1018.0 0.0
20/05:00am 10.5 6.6 3.3 61 3.3 N 13 15 7 8 1019.2 1017.9 0.0
20/04:30am 11.3 7.4 3.3 58 3.7 N 13 15 7 8 1019.2 1017.9 0.0
20/04:00am 11.0 7.5 3.3 59 3.5 N 11 13 6 7 1019.2 1017.9 0.0
20/03:30am 11.3 7.4 3.3 58 3.7 N 13 15 7 8 1019.4 1018.1 0.0
20/03:00am 11.4 7.8 2.7 55 3.9 N 11 15 6 8 1019.6 1018.3 0.0
20/02:30am 12.0 8.4 3.0 54 4.1 N 11 13 6 7 1019.8 1018.6 0.0
20/02:00am 11.3 8.1 2.9 56 3.8 N 9 11 5 6 1020.1 1018.9 0.0
20/01:30am 10.4 6.6 2.0 56 3.7 N 11 11 6 6 1020.4 1019.2 0.0
20/01:00am 10.8 7.0 1.9 54 3.9 NNW 11 13 6 7 1021.0 1019.7 0.0
20/12:30am 11.8 8.0 1.7 50 4.5 NNW 11 13 6 7 1021.2 1020.0 0.0
20/12:00am 12.0 8.2 1.9 50 4.5 NNW 11 13 6 7 1021.3 1020.1 0.0
 
Date/Time
EST
Temp
°C
App
Temp
°C
Dew
Point
°C
Rel
Hum
%
Delta-T
°C
Wind Press
QNH
hPa
Press
MSL
hPa
Rain since
9am
mm
Dir  Spd
km/h
Gust
km/h
Spd
kts
Gust
kts
19/11:30pm 11.8 8.4 1.7 50 4.5 NNW 9 13 5 7 1021.6 1020.4 0.0
19/11:00pm 11.2 7.8 1.7 52 4.2 NNW 9 13 5 7 1021.9 1020.7 0.0
19/10:30pm 11.0 7.2 1.8 53 4.0 NNW 11 15 6 8 1022.1 1020.9 0.0
19/10:00pm 11.9 8.4 1.5 49 4.6 NNW 9 15 5 8 1022.5 1021.3 0.0
19/09:30pm 12.6 9.7 1.6 47 4.9 NNW 6 11 3 6 1022.5 1021.3 0.0
19/09:00pm 12.2 9.2 2.1 50 4.5 NNW 7 19 4 10 1022.6 1021.4 0.0
19/08:30pm 12.1 9.1 2.3 51 4.4 WNW 7 15 4 8 1022.7 1021.5 0.0
19/08:00pm 11.7 8.0 2.2 52 4.2 W 11 13 6 7 1022.7 1021.5 0.0
19/07:30pm 13.0 9.3 2.6 49 4.7 WSW 11 13 6 7 1022.5 1021.3 0.0
19/07:00pm 13.3 9.6 2.5 48 4.9 WSW 11 13 6 7 1022.3 1021.1 0.0
19/06:30pm 14.0 10.7 2.6 46 5.2 SW 9 13 5 7 1022.0 1020.8 0.0
19/06:00pm 14.3 11.0 2.5 45 5.4 SSW 9 13 5 7 1021.8 1020.6 0.0
19/05:30pm 16.0 12.6 1.7 38 6.6 SW 9 13 5 7 1021.7 1020.5 0.0
19/05:00pm 17.2 13.0 1.6 35 7.2 SSW 13 15 7 8 1021.7 1020.5 0.0
19/04:30pm 17.9 13.7 1.8 34 7.5 SSW 13 20 7 11 1021.5 1020.3 0.0
19/04:00pm 18.2 13.6 1.3 32 7.8 SW 15 22 8 12 1021.4 1020.2 0.0
19/03:30pm 18.2 13.3 1.7 33 7.7 SSW 17 20 9 11 1021.5 1020.3 0.0
19/03:00pm 18.7 14.0 3.3 36 7.4 SW 17 26 9 14 1021.6 1020.4 0.0
19/02:30pm 19.1 14.6 4.1 37 7.4 SSW 17 22 9 12 1021.9 1020.7 0.0
19/02:00pm 19.2 16.0 5.3 40 7.0 SSW 11 19 6 10 1022.2 1021.0 0.0
19/01:30pm 19.3 15.6 4.6 38 7.3 SSW 13 24 7 13 1022.7 1021.5 0.0
19/01:00pm 18.6 15.9 5.8 43 6.5 WSW 9 15 5 8 1023.1 1021.9 0.0
19/12:30pm 17.6 15.0 5.9 46 5.9 S 9 17 5 9 1023.7 1022.5 0.0
19/12:00pm 16.7 14.0 5.6 48 5.5 SSW 9 19 5 10 1024.2 1023.0 0.0
19/11:30am 15.8 13.5 5.7 51 5.0 SW 7 17 4 9 1024.5 1023.3 0.0
19/11:00am 15.2 12.4 5.1 51 4.9 SW 9 15 5 8 1024.7 1023.5 0.0
19/10:30am 14.4 11.5 4.7 52 4.7 SSW 9 15 5 8 1024.9 1023.7 0.0
19/10:00am 14.1 11.2 4.7 53 4.5 SSE 9 13 5 7 1025.1 1023.9 0.0
19/09:30am 12.7 9.5 3.1 52 4.4 SSE 9 13 5 7 1025.3 1024.2 0.0

Other formats

Comma delimited format used in spreadsheet applications
http://www.bom.gov.au/fwo/IDN60801/IDN60801.95728.axf

JavaScript Object Notation format (JSON) in row-major order
http://www.bom.gov.au/fwo/IDN60801/IDN60801.95728.json

Data quality

Most of these data are generated automatically and are frequently updated. Quality checks on data are not normally performed. It is possible for incorrect values to appear. Refer to information at About Latest Weather Observations and please check the disclaimer before using these data.